Aérodrome :
LOGIN :

S'inscrire | Disclaimer

   EN    FR    IT 

 










Légende :    VFR   VFR Marginal   IFR   IFR Intensif   IFR Très Intensif
Visi : 
Plafond : 
>= 8 km
>= 3000ft
5 à 8 km
1000 à 3000 ft
1500m à 5 km
500 à 1000 ft
800 à 1500m
200 à 500 ft
< 800m
< 200 ft
Symboles :   Orages  Brouillard  Fortes neiges  Fortes précipitations  Vent > 20 kt
SIGMETs :   Divers  Orages  Givrage  Turbulence  Onde Orograph.  Cendres Volcan.







- Altitude de l'aérodrome : 436 ft
- Code IATA : BTS


LZIB - Bratislava

DERNIER METAR :
  • 121230Z 32010KT 9999 FEW012 SCT019 BKN055 03/M00 Q1019 NOSIG

METARs EXPIRÉS :
  • 121200Z 32009KT 280V350 9999 FEW012 SCT020 BKN054 04/M01 Q1019 NOSIG
  • 121130Z 31010KT 9999 FEW012 SCT053 05/M00 Q1019 NOSIG
  • 121100Z 31006KT 9999 FEW012 SCT050 04/M00 Q1019 NOSIG
  • 121030Z 32008KT 9999 FEW012 SCT052 03/M00 Q1019 NOSIG
  • 121000Z 31010KT 9999 FEW012 SCT050 03/M00 Q1019 NOSIG

TAF TAF LZIB
Valide du 12 à 12h jusqu'au 13 à 12h UTC


121100Z 1212/1312 32008KT 9999 FEW015 SCT050
TEMPO 1212/1215 7000 -RA SCT010 BKN035
BECMG 1220/1222 VRB02KT FEW040 SCT090
TEMPO 1222/1308 3200 BR SCT004 BKN008
PROB40
TEMPO 1302/1307 1200 BCFG BKN003
BECMG 1308/1310 07006KT BKN030
Pas de NOTAMs connus pour ce terrain.



MET'MAP, la Météo Aéronautique d'un coup d'oeil ! - Copyright ORBIFLY Décembre 2007 - Disclaimer

ORBIFLY MET'MAP TEAM :

Programmation & Développement : Alexandra Zaïnal
Conception & Développement : Baudouin d'Aumeries
Co-Programmation & Développement : Marc-Olivier Méhu
Soutien technique & logistique : Manuel Goepfert

Contact : metmap@orbifly.com




SOURCES & CREDITS :

   NOAA